createdAt,value
2022-11-23T00:00:49.039Z,0.12
2022-11-23T00:01:49.038Z,0.12
2022-11-23T00:02:48.973Z,0.12
2022-11-23T00:03:48.957Z,0.12
2022-11-23T00:04:49.078Z,0.11
2022-11-23T00:05:48.882Z,0.11
2022-11-23T00:06:48.878Z,0.11
2022-11-23T00:07:48.832Z,0.11
2022-11-23T00:08:48.776Z,0.11
2022-11-23T00:09:48.735Z,0.11
2022-11-23T00:10:48.693Z,0.12
2022-11-23T00:11:48.713Z,0.12
2022-11-23T00:12:48.632Z,0.11
2022-11-23T00:13:48.597Z,0.11
2022-11-23T00:14:48.561Z,0.11
2022-11-23T00:15:48.522Z,0.11
2022-11-23T00:16:48.536Z,0.11
2022-11-23T00:17:48.459Z,0.11
2022-11-23T00:18:48.432Z,0.11
2022-11-23T00:19:48.398Z,0.1
2022-11-23T00:20:48.383Z,0.1
2022-11-23T00:21:48.343Z,0.1
2022-11-23T00:22:48.266Z,0.1
2022-11-23T00:23:48.259Z,0.11
2022-11-23T00:24:48.220Z,0.11
2022-11-23T00:25:48.195Z,0.11
2022-11-23T00:26:48.130Z,0.11
2022-11-23T00:27:48.095Z,0.11
2022-11-23T00:28:48.052Z,0.11
2022-11-23T00:29:48.031Z,0.11
2022-11-23T00:30:48.009Z,0.11
2022-11-23T00:31:47.997Z,0.12
2022-11-23T00:32:47.915Z,0.12
2022-11-23T00:33:47.926Z,0.12
2022-11-23T00:34:47.855Z,0.12
2022-11-23T00:35:47.820Z,0.12
2022-11-23T00:36:47.807Z,0.12
2022-11-23T00:37:47.773Z,0.12
2022-11-23T00:38:47.696Z,0.12
2022-11-23T00:39:47.707Z,0.11
2022-11-23T00:40:47.637Z,0.11
2022-11-23T00:41:47.600Z,0.1
2022-11-23T00:42:47.566Z,0.1
2022-11-23T00:43:47.529Z,0.1
2022-11-23T00:44:47.492Z,0.11
2022-11-23T00:45:47.455Z,0.11
2022-11-23T00:46:47.431Z,0.11
2022-11-23T00:47:47.391Z,0.11
2022-11-23T00:48:47.356Z,0.11
2022-11-23T00:49:47.331Z,0.11
2022-11-23T00:50:47.286Z,0.12
2022-11-23T00:51:47.251Z,0.12
2022-11-23T00:52:47.243Z,0.12
2022-11-23T00:53:47.209Z,0.12
2022-11-23T00:54:47.152Z,0.12
2022-11-23T00:55:47.119Z,0.12
2022-11-23T00:56:47.064Z,0.12
2022-11-23T00:57:47.070Z,0.13
2022-11-23T00:58:46.992Z,0.13
2022-11-23T00:59:46.970Z,0.13
2022-11-23T01:00:46.924Z,0.12
2022-11-23T01:01:46.929Z,0.12
2022-11-23T01:02:46.842Z,0.13
2022-11-23T01:03:46.822Z,0.13
2022-11-23T01:04:46.767Z,0.12
2022-11-23T01:05:46.767Z,0.11
2022-11-23T01:06:46.695Z,0.11
2022-11-23T01:07:46.722Z,0.11
2022-11-23T01:08:46.672Z,0.11
2022-11-23T01:09:46.655Z,0.11
2022-11-23T01:10:46.587Z,0.11
2022-11-23T01:11:46.552Z,0.11
2022-11-23T01:12:46.512Z,0.12
2022-11-23T01:13:46.477Z,0.12
2022-11-23T01:14:46.438Z,0.12
2022-11-23T01:15:46.413Z,0.12
2022-11-23T01:16:46.360Z,0.11
2022-11-23T01:17:46.346Z,0.11
2022-11-23T01:18:46.290Z,0.12
2022-11-23T01:19:46.265Z,0.12
2022-11-23T01:20:46.240Z,0.12
2022-11-23T01:21:46.202Z,0.11
2022-11-23T01:22:46.148Z,0.11
2022-11-23T01:23:46.125Z,0.11
2022-11-23T01:24:46.140Z,0.11
2022-11-23T01:25:46.072Z,0.12
2022-11-23T01:26:46.028Z,0.12
2022-11-23T01:27:45.989Z,0.11
2022-11-23T01:28:45.949Z,0.11
2022-11-23T01:29:45.937Z,0.11
2022-11-23T01:30:45.868Z,0.11
2022-11-23T01:31:46.930Z,0.11
2022-11-23T01:32:45.794Z,0.11
2022-11-23T01:33:45.820Z,0.11
2022-11-23T01:34:45.740Z,0.11
2022-11-23T01:35:45.724Z,0.11
2022-11-23T01:36:45.675Z,0.11
2022-11-23T01:37:45.661Z,0.11
2022-11-23T01:38:45.601Z,0.11
2022-11-23T01:39:45.609Z,0.1
2022-11-23T01:40:45.584Z,0.1
2022-11-23T01:41:45.514Z,0.11
2022-11-23T01:42:45.476Z,0.11
2022-11-23T01:43:45.444Z,0.11
2022-11-23T01:44:45.389Z,0.11
2022-11-23T01:45:45.363Z,0.11
2022-11-23T01:46:45.320Z,0.11
2022-11-23T01:47:45.308Z,0.11
2022-11-23T01:48:45.243Z,0.1
2022-11-23T01:49:45.230Z,0.11
2022-11-23T01:50:45.182Z,0.11
2022-11-23T01:51:45.193Z,0.11
2022-11-23T01:52:45.100Z,0.11
2022-11-23T01:53:45.083Z,0.11
2022-11-23T01:54:45.040Z,0.11
2022-11-23T01:55:45.017Z,0.11
2022-11-23T01:56:44.985Z,0.12
2022-11-23T01:57:44.939Z,0.11
2022-11-23T01:58:44.895Z,0.12
2022-11-23T01:59:44.881Z,0.11
2022-11-23T02:00:44.886Z,0.11
2022-11-23T02:01:44.828Z,0.11
2022-11-23T02:02:44.747Z,0.12
2022-11-23T02:03:44.740Z,0.12
2022-11-23T02:04:44.677Z,0.12
2022-11-23T02:05:44.694Z,0.12
2022-11-23T02:06:44.641Z,0.12
2022-11-23T02:07:44.679Z,0.12
2022-11-23T02:08:44.549Z,0.12
2022-11-23T02:09:44.533Z,0.12
2022-11-23T02:10:44.491Z,0.12
2022-11-23T02:11:44.454Z,0.12
2022-11-23T02:12:44.463Z,0.12
2022-11-23T02:13:44.388Z,0.11
2022-11-23T02:14:44.333Z,0.11
2022-11-23T02:15:44.321Z,0.11
2022-11-23T02:16:44.269Z,0.11
2022-11-23T02:17:44.283Z,0.11
2022-11-23T02:18:44.193Z,0.11
2022-11-23T02:19:44.169Z,0.12
2022-11-23T02:20:44.127Z,0.12
2022-11-23T02:21:44.111Z,0.12
2022-11-23T02:22:44.086Z,0.11
2022-11-23T02:23:44.041Z,0.11
2022-11-23T02:24:43.979Z,0.11
2022-11-23T02:25:43.959Z,0.12
2022-11-23T02:26:43.898Z,0.12
2022-11-23T02:27:46.895Z,0.11
2022-11-23T02:28:43.863Z,0.12
2022-11-23T02:29:43.811Z,0.11
2022-11-23T02:30:43.756Z,0.11
2022-11-23T02:31:43.740Z,0.11
2022-11-23T02:32:43.732Z,0.12
2022-11-23T02:33:43.679Z,0.12
2022-11-23T02:34:43.617Z,0.11
2022-11-23T02:35:43.612Z,0.11
2022-11-23T02:36:43.557Z,0.11
2022-11-23T02:37:43.544Z,0.11
2022-11-23T02:38:43.472Z,0.11
2022-11-23T02:39:43.464Z,0.11
2022-11-23T02:40:43.412Z,0.12
2022-11-23T02:41:43.387Z,0.12
2022-11-23T02:42:43.341Z,0.12
2022-11-23T02:43:43.297Z,0.11
2022-11-23T02:44:43.292Z,0.11
2022-11-23T02:45:43.251Z,0.11
2022-11-23T02:46:43.241Z,0.11
2022-11-23T02:48:43.124Z,0.11
2022-11-23T02:49:43.089Z,0.11
2022-11-23T02:50:43.053Z,0.11
2022-11-23T02:51:43.036Z,0.11
2022-11-23T02:52:43.003Z,0.12
2022-11-23T02:53:42.962Z,0.13
2022-11-23T02:54:42.935Z,0.13
2022-11-23T02:55:42.900Z,0.14
2022-11-23T02:56:42.851Z,0.14
2022-11-23T02:57:42.855Z,0.14
2022-11-23T02:58:42.788Z,0.13
2022-11-23T02:59:42.760Z,0.13
2022-11-23T03:00:42.818Z,0.13
2022-11-23T03:01:42.721Z,0.14
2022-11-23T03:02:42.655Z,0.13
2022-11-23T03:03:42.632Z,0.13
2022-11-23T03:04:42.588Z,0.13
2022-11-23T03:05:42.579Z,0.12
2022-11-23T03:06:42.531Z,0.12
2022-11-23T03:07:42.550Z,0.13
2022-11-23T03:08:42.466Z,0.13
2022-11-23T03:09:42.424Z,0.12
2022-11-23T03:10:42.364Z,0.12
2022-11-23T03:11:42.368Z,0.12
2022-11-23T03:12:42.322Z,0.11
2022-11-23T03:13:42.272Z,0.11
2022-11-23T03:14:42.223Z,0.11
2022-11-23T03:15:42.206Z,0.11
2022-11-23T03:16:42.192Z,0.11
2022-11-23T03:17:42.140Z,0.11
2022-11-23T03:18:42.086Z,0.11
2022-11-23T03:19:42.115Z,0.11
2022-11-23T03:20:42.021Z,0.12
2022-11-23T03:21:42.001Z,0.12
2022-11-23T03:22:41.948Z,0.12
2022-11-23T03:23:41.940Z,0.13
2022-11-23T03:24:41.908Z,0.12
2022-11-23T03:25:41.865Z,0.13
2022-11-23T03:26:41.821Z,0.13
2022-11-23T03:27:41.810Z,0.12
2022-11-23T03:28:41.745Z,0.12
2022-11-23T03:29:41.737Z,0.12
2022-11-23T03:30:41.672Z,0.12
2022-11-23T03:31:41.662Z,0.12
2022-11-23T03:32:41.668Z,0.12
2022-11-23T03:33:41.605Z,0.11
2022-11-23T03:34:41.538Z,0.12
2022-11-23T03:35:41.519Z,0.12
2022-11-23T03:36:41.471Z,0.13
2022-11-23T03:37:41.490Z,0.13
2022-11-23T03:38:41.400Z,0.13
2022-11-23T03:39:45.857Z,0.13
2022-11-23T03:40:41.322Z,0.13
2022-11-23T03:41:41.313Z,0.13
2022-11-23T03:42:41.263Z,0.13
2022-11-23T03:43:41.236Z,0.13
2022-11-23T03:44:41.200Z,0.13
2022-11-23T03:45:41.177Z,0.13
2022-11-23T03:46:41.105Z,0.13
2022-11-23T03:47:41.124Z,0.12
2022-11-23T03:48:41.083Z,0.11
2022-11-23T03:49:41.031Z,0.11
2022-11-23T03:50:40.977Z,0.11
2022-11-23T03:51:41.002Z,0.11
2022-11-23T03:52:40.904Z,0.11
2022-11-23T03:53:40.919Z,0.11
2022-11-23T03:54:40.832Z,0.11
2022-11-23T03:55:40.837Z,0.1
2022-11-23T03:56:40.759Z,0.1
2022-11-23T03:57:40.791Z,0.1
2022-11-23T03:58:40.715Z,0.11
2022-11-23T03:59:40.687Z,0.11
2022-11-23T04:00:40.653Z,0.11
2022-11-23T04:01:40.640Z,0.12
2022-11-23T04:02:40.553Z,0.11
2022-11-23T04:03:40.536Z,0.12
2022-11-23T04:04:40.579Z,0.12
2022-11-23T04:05:40.459Z,0.12
2022-11-23T04:06:40.432Z,0.12
2022-11-23T04:07:40.407Z,0.12
2022-11-23T04:08:40.390Z,0.11
2022-11-23T04:09:40.294Z,0.11
2022-11-23T04:10:40.286Z,0.11
2022-11-23T04:11:40.235Z,0.11
2022-11-23T04:12:40.223Z,0.11
2022-11-23T04:13:40.171Z,0.11
2022-11-23T04:14:40.154Z,0.11
2022-11-23T04:15:40.093Z,0.11
2022-11-23T04:16:40.099Z,0.12
2022-11-23T04:17:40.025Z,0.12
2022-11-23T04:18:40.009Z,0.12
2022-11-23T04:19:39.945Z,0.13
2022-11-23T04:20:39.953Z,0.12
2022-11-23T04:21:42.736Z,0.12
2022-11-23T04:22:39.873Z,0.12
2022-11-23T04:23:39.808Z,0.12
2022-11-23T04:24:39.796Z,0.12
2022-11-23T04:25:39.755Z,0.12
2022-11-23T04:26:39.731Z,0.12
2022-11-23T04:27:39.686Z,0.11
2022-11-23T04:28:39.654Z,0.11
2022-11-23T04:29:39.618Z,0.1
2022-11-23T04:30:39.582Z,0.11
2022-11-23T04:31:39.519Z,0.11
2022-11-23T04:32:39.528Z,0.11
2022-11-23T04:33:39.458Z,0.12
2022-11-23T04:34:39.434Z,0.12
2022-11-23T04:35:39.380Z,0.11
2022-11-23T04:36:39.395Z,0.11
2022-11-23T04:37:39.358Z,0.11
2022-11-23T04:38:39.309Z,0.11
2022-11-23T04:39:39.251Z,0.11
2022-11-23T04:40:39.226Z,0.11
2022-11-23T04:41:39.171Z,0.12
2022-11-23T04:42:39.200Z,0.12
2022-11-23T04:43:39.102Z,0.11
2022-11-23T04:44:39.091Z,0.11
2022-11-23T04:45:39.044Z,0.12
2022-11-23T04:46:39.019Z,0.12
2022-11-23T04:47:38.987Z,0.12
2022-11-23T04:48:38.964Z,0.12
2022-11-23T04:49:38.903Z,0.12
2022-11-23T04:50:40.708Z,0.12
2022-11-23T04:51:38.827Z,0.12
2022-11-23T04:52:38.840Z,0.12
2022-11-23T04:53:38.781Z,0.12
2022-11-23T04:54:38.760Z,0.12
2022-11-23T04:55:38.700Z,0.13
2022-11-23T04:56:38.689Z,0.13
2022-11-23T04:57:38.629Z,0.13
2022-11-23T04:58:38.613Z,0.13
2022-11-23T04:59:38.568Z,0.13
2022-11-23T05:00:38.578Z,0.13
2022-11-23T05:01:38.531Z,0.12
2022-11-23T05:02:38.487Z,0.12
2022-11-23T05:03:38.421Z,0.13
2022-11-23T05:04:38.408Z,0.13
2022-11-23T05:05:38.352Z,0.13
2022-11-23T05:06:38.360Z,0.12
2022-11-23T05:07:38.323Z,0.12
2022-11-23T05:08:38.288Z,0.12
2022-11-23T05:09:38.200Z,0.12
2022-11-23T05:10:38.199Z,0.12
2022-11-23T05:11:38.149Z,0.13
2022-11-23T05:12:38.114Z,0.12
2022-11-23T05:13:38.073Z,0.12
2022-11-23T05:14:38.047Z,0.12
2022-11-23T05:15:38.006Z,0.12
2022-11-23T05:16:37.984Z,0.12
2022-11-23T05:17:37.949Z,0.12
2022-11-23T05:18:37.925Z,0.13
2022-11-23T05:19:37.900Z,0.13
2022-11-23T05:20:37.834Z,0.13
2022-11-23T05:21:37.779Z,0.13
2022-11-23T05:22:37.763Z,0.13
2022-11-23T05:23:37.708Z,0.12
2022-11-23T05:24:37.763Z,0.13
2022-11-23T05:25:37.636Z,0.12
2022-11-23T05:26:37.642Z,0.12
2022-11-23T05:27:37.573Z,0.12
2022-11-23T05:28:40.493Z,0.12
2022-11-23T05:29:37.510Z,0.12
2022-11-23T05:30:37.478Z,0.12
2022-11-23T05:31:37.475Z,0.11
2022-11-23T05:32:37.419Z,0.11
2022-11-23T05:33:37.372Z,0.11
2022-11-23T05:34:37.415Z,0.11
2022-11-23T05:35:37.307Z,0.11
2022-11-23T05:36:40.892Z,0.12
2022-11-23T05:37:37.226Z,0.12
2022-11-23T05:38:37.196Z,0.12
2022-11-23T05:39:37.191Z,0.11
2022-11-23T05:40:37.154Z,0.12
2022-11-23T05:41:37.075Z,0.12
2022-11-23T05:42:37.068Z,0.12
2022-11-23T05:43:37.004Z,0.12
2022-11-23T05:44:37.029Z,0.11
2022-11-23T05:45:36.946Z,0.11
2022-11-23T05:46:36.919Z,0.11
2022-11-23T05:47:36.865Z,0.12
2022-11-23T05:48:36.869Z,0.12
2022-11-23T05:49:36.845Z,0.13
2022-11-23T05:50:36.786Z,0.13
2022-11-23T05:51:36.729Z,0.13
2022-11-23T05:52:36.705Z,0.12
2022-11-23T05:53:36.657Z,0.12
2022-11-23T05:54:36.648Z,0.13
2022-11-23T05:55:36.582Z,0.13
2022-11-23T05:56:40.060Z,0.12
2022-11-23T05:57:36.518Z,0.12
2022-11-23T05:58:36.509Z,0.12
2022-11-23T05:59:36.438Z,0.12
2022-11-23T06:00:36.467Z,0.11
2022-11-23T06:01:36.365Z,0.12
2022-11-23T06:02:40.844Z,0.12
2022-11-23T06:03:36.342Z,0.12
2022-11-23T06:04:36.285Z,0.12
2022-11-23T06:05:36.262Z,0.12
2022-11-23T06:06:36.210Z,0.12
2022-11-23T06:07:36.189Z,0.12
2022-11-23T06:08:36.150Z,0.12
2022-11-23T06:09:36.096Z,0.12
2022-11-23T06:10:36.111Z,0.12
2022-11-23T06:11:36.039Z,0.12
2022-11-23T06:12:36.061Z,0.11
2022-11-23T06:13:35.969Z,0.11
2022-11-23T06:14:35.931Z,0.11
2022-11-23T06:15:35.932Z,0.1
2022-11-23T06:16:35.876Z,0.1
2022-11-23T06:17:35.875Z,0.11
2022-11-23T06:18:35.821Z,0.11
2022-11-23T06:19:36.030Z,0.11
2022-11-23T06:20:35.748Z,0.11
2022-11-23T06:21:35.678Z,0.11
2022-11-23T06:22:35.688Z,0.11
2022-11-23T06:23:35.602Z,0.11
2022-11-23T06:24:35.594Z,0.11
2022-11-23T06:25:35.536Z,0.11
2022-11-23T06:26:35.516Z,0.11
2022-11-23T06:27:35.506Z,0.11
2022-11-23T06:28:35.469Z,0.1
2022-11-23T06:29:35.399Z,0.1
2022-11-23T06:30:35.369Z,0.1
2022-11-23T06:31:35.333Z,0.1
2022-11-23T06:32:35.308Z,0.1
2022-11-23T06:33:35.281Z,0.11
2022-11-23T06:34:35.236Z,0.11
2022-11-23T06:35:35.190Z,0.11
2022-11-23T06:36:35.185Z,0.12
2022-11-23T06:37:35.127Z,0.12
2022-11-23T06:38:35.102Z,0.12
2022-11-23T06:39:35.259Z,0.12
2022-11-23T06:40:35.036Z,0.12
2022-11-23T06:41:34.976Z,0.12
2022-11-23T06:42:39.636Z,0.12
2022-11-23T06:43:34.929Z,0.11
2022-11-23T06:44:34.936Z,0.11
2022-11-23T06:45:34.836Z,0.12
2022-11-23T06:46:34.814Z,0.11
2022-11-23T06:47:34.769Z,0.11
2022-11-23T06:48:34.765Z,0.11
2022-11-23T06:49:34.697Z,0.12
2022-11-23T06:50:34.710Z,0.11
2022-11-23T06:51:34.628Z,0.11
2022-11-23T06:52:34.614Z,0.11
2022-11-23T06:53:34.604Z,0.12
2022-11-23T06:54:34.537Z,0.12
2022-11-23T06:55:34.490Z,0.12
2022-11-23T06:56:34.478Z,0.12
2022-11-23T06:57:34.416Z,0.12
2022-11-23T06:58:34.407Z,0.11
2022-11-23T06:59:34.682Z,0.12
2022-11-23T07:00:34.371Z,0.11
2022-11-23T07:01:34.337Z,0.11
2022-11-23T07:02:34.250Z,0.11
2022-11-23T07:03:34.235Z,0.1
2022-11-23T07:04:34.175Z,0.1
2022-11-23T07:05:34.158Z,0.1
2022-11-23T07:06:34.313Z,0.11
2022-11-23T07:07:34.093Z,0.1
2022-11-23T07:08:34.046Z,0.11
2022-11-23T07:09:34.292Z,0.11
2022-11-23T07:10:34.005Z,0.11
2022-11-23T07:11:33.926Z,0.12
2022-11-23T07:12:33.896Z,0.12
2022-11-23T07:13:33.842Z,0.12
2022-11-23T07:14:33.856Z,0.12
2022-11-23T07:15:33.779Z,0.12
2022-11-23T07:16:33.787Z,0.12
2022-11-23T07:17:33.713Z,0.12
2022-11-23T07:18:33.721Z,0.13
2022-11-23T07:19:33.808Z,0.13
2022-11-23T07:20:33.642Z,0.13
2022-11-23T07:21:33.556Z,0.12
2022-11-23T07:22:33.552Z,0.13
2022-11-23T07:23:33.494Z,0.12
2022-11-23T07:24:38.797Z,0.12
2022-11-23T07:25:33.445Z,0.12
2022-11-23T07:26:33.395Z,0.11
2022-11-23T07:27:33.339Z,0.11
2022-11-23T07:28:33.331Z,0.11
2022-11-23T07:29:33.519Z,0.11
2022-11-23T07:30:33.335Z,0.11
2022-11-23T07:31:33.208Z,0.11
2022-11-23T07:32:33.220Z,0.1
2022-11-23T07:33:33.125Z,0.11
2022-11-23T07:34:33.123Z,0.12
2022-11-23T07:35:33.056Z,0.12
2022-11-23T07:36:33.112Z,0.12
2022-11-23T07:37:33.006Z,0.12
2022-11-23T07:38:32.985Z,0.12
2022-11-23T07:39:55.505Z,0.12
2022-11-23T07:40:48.889Z,0.12
2022-11-23T07:41:49.367Z,0.12
2022-11-23T07:42:48.811Z,0.12
2022-11-23T07:43:48.768Z,0.11
2022-11-23T07:44:48.762Z,0.11
2022-11-23T07:45:48.684Z,0.12
2022-11-23T07:46:48.687Z,0.12
2022-11-23T07:47:48.639Z,0.12
2022-11-23T07:48:48.607Z,0.12
2022-11-23T07:49:48.543Z,0.12
2022-11-23T07:50:48.551Z,0.12
2022-11-23T07:51:48.485Z,0.12
2022-11-23T07:52:48.458Z,0.12
2022-11-23T07:53:48.404Z,0.12
2022-11-23T07:54:48.396Z,0.11
2022-11-23T07:55:48.339Z,0.11
2022-11-23T07:56:48.315Z,0.11
2022-11-23T07:57:48.339Z,0.11
2022-11-23T07:58:48.246Z,0.11
2022-11-23T07:59:48.190Z,0.12
2022-11-23T08:00:48.188Z,0.12
2022-11-23T08:01:51.293Z,0.12
2022-11-23T08:03:04.531Z,0.12
2022-11-23T08:04:12.057Z,0.12
2022-11-23T08:05:14.152Z,0.12
2022-11-23T08:06:11.977Z,0.12
2022-11-23T08:07:12.020Z,0.12
2022-11-23T08:08:11.877Z,0.12
2022-11-23T08:09:11.886Z,0.12
2022-11-23T08:10:11.830Z,0.12
2022-11-23T08:11:11.811Z,0.12
2022-11-23T08:12:11.788Z,0.12
2022-11-23T08:13:11.723Z,0.12
2022-11-23T08:14:11.681Z,0.13
2022-11-23T08:15:11.647Z,0.13
2022-11-23T08:16:11.612Z,0.13
2022-11-23T08:17:11.581Z,0.13
2022-11-23T08:18:11.571Z,0.13
2022-11-23T08:19:11.506Z,0.13
2022-11-23T08:20:11.490Z,0.13
2022-11-23T08:21:11.435Z,0.13
2022-11-23T08:22:14.715Z,0.12
2022-11-23T08:23:11.342Z,0.13
2022-11-23T08:24:11.331Z,0.13
2022-11-23T08:25:11.263Z,0.13
2022-11-23T08:26:13.743Z,0.13
2022-11-23T08:27:11.213Z,0.13
2022-11-23T08:28:11.176Z,0.13
2022-11-23T08:29:11.173Z,0.12
2022-11-23T08:30:11.103Z,0.12
2022-11-23T08:31:11.083Z,0.13
2022-11-23T08:32:11.031Z,0.13
2022-11-23T08:33:10.994Z,0.12
2022-11-23T08:34:10.985Z,0.13
2022-11-23T08:35:10.941Z,0.13
2022-11-23T08:36:10.950Z,0.13
2022-11-23T08:37:10.851Z,0.13
2022-11-23T08:38:10.859Z,0.13
2022-11-23T08:39:10.764Z,0.13
2022-11-23T08:40:10.778Z,0.14
2022-11-23T08:41:10.692Z,0.13
2022-11-23T08:42:10.700Z,0.13
2022-11-23T08:43:10.644Z,0.13
2022-11-23T08:44:10.598Z,0.13
2022-11-23T08:45:10.541Z,0.13
2022-11-23T08:46:11.307Z,0.13
2022-11-23T08:47:10.477Z,0.13
2022-11-23T08:48:10.503Z,0.13
2022-11-23T08:49:10.421Z,0.13
2022-11-23T08:50:10.378Z,0.13
2022-11-23T08:51:10.352Z,0.13
2022-11-23T08:52:10.379Z,0.13
2022-11-23T08:53:10.303Z,0.13
2022-11-23T08:54:10.252Z,0.13
2022-11-23T08:55:10.203Z,0.12
2022-11-23T08:56:10.157Z,0.12
2022-11-23T08:57:10.143Z,0.12
2022-11-23T08:58:13.301Z,0.13
2022-11-23T08:59:10.034Z,0.13
2022-11-23T09:00:10.048Z,0.14
2022-11-23T09:01:10.023Z,0.13
2022-11-23T09:02:09.942Z,0.13
2022-11-23T09:03:09.922Z,0.13
2022-11-23T09:04:09.888Z,0.13
2022-11-23T09:05:09.813Z,0.14
2022-11-23T09:06:09.822Z,0.14
2022-11-23T09:07:09.775Z,0.13
2022-11-23T09:08:09.751Z,0.13
2022-11-23T09:09:09.682Z,0.11
2022-11-23T09:10:12.543Z,0.11
2022-11-23T09:11:09.597Z,0.11
2022-11-23T09:12:09.573Z,0.11
2022-11-23T09:13:09.538Z,0.11
2022-11-23T09:14:09.500Z,0.11
2022-11-23T09:15:09.502Z,0.11
2022-11-23T09:16:09.447Z,0.11
2022-11-23T09:17:09.398Z,0.11
2022-11-23T09:18:09.357Z,0.11
2022-11-23T09:19:09.331Z,0.11
2022-11-23T09:20:09.290Z,0.11
2022-11-23T09:21:09.245Z,0.11
2022-11-23T09:22:09.231Z,0.11
2022-11-23T09:23:13.642Z,0.11
2022-11-23T09:24:09.260Z,0.1
2022-11-23T09:25:09.161Z,0.1
2022-11-23T09:26:09.086Z,0.1
2022-11-23T09:27:09.030Z,0.1
2022-11-23T09:28:08.995Z,0.1
2022-11-23T09:29:08.958Z,0.1
2022-11-23T09:30:08.938Z,0.1
2022-11-23T09:31:08.919Z,0.11
2022-11-23T09:32:08.853Z,0.11
2022-11-23T09:33:08.823Z,0.11
2022-11-23T09:34:08.780Z,0.11
2022-11-23T09:35:08.742Z,0.11
2022-11-23T09:36:08.700Z,0.11
2022-11-23T09:37:08.638Z,0.11
2022-11-23T09:38:08.645Z,0.12
2022-11-23T09:39:08.568Z,0.12
2022-11-23T09:40:08.594Z,0.12
2022-11-23T09:41:08.493Z,0.11
2022-11-23T09:42:08.482Z,0.11
2022-11-23T09:43:08.440Z,0.12
2022-11-23T09:44:08.454Z,0.12
2022-11-23T09:45:08.343Z,0.12
2022-11-23T09:46:08.329Z,0.13
2022-11-23T09:47:08.352Z,0.13
2022-11-23T09:48:08.286Z,0.13
2022-11-23T09:49:08.240Z,0.13
2022-11-23T09:50:08.244Z,0.13
2022-11-23T09:51:08.132Z,0.12
2022-11-23T09:52:08.129Z,0.12
2022-11-23T09:53:08.108Z,0.11
2022-11-23T09:54:08.056Z,0.11
2022-11-23T09:55:08.156Z,0.11
2022-11-23T09:56:08.016Z,0.11
2022-11-23T09:57:07.909Z,0.12
2022-11-23T09:58:07.921Z,0.12
2022-11-23T09:59:07.835Z,0.13
2022-11-23T10:00:07.833Z,0.13
2022-11-23T10:01:07.936Z,0.13
2022-11-23T10:02:07.820Z,0.13
2022-11-23T10:03:07.684Z,0.14
2022-11-23T10:04:07.688Z,0.14
2022-11-23T10:05:07.614Z,0.14
2022-11-23T10:06:07.637Z,0.14
2022-11-23T10:07:07.580Z,0.13
2022-11-23T10:08:07.520Z,0.13
2022-11-23T10:09:10.227Z,0.13
2022-11-23T10:10:07.448Z,0.13
2022-11-23T10:11:07.443Z,0.13
2022-11-23T10:12:07.426Z,0.13
2022-11-23T10:13:07.322Z,0.13
2022-11-23T10:14:07.324Z,0.14
2022-11-23T10:15:07.245Z,0.14
2022-11-23T10:16:07.264Z,0.14
2022-11-23T10:17:07.206Z,0.14
2022-11-23T10:18:07.157Z,0.14
2022-11-23T10:19:07.123Z,0.13
2022-11-23T10:20:07.091Z,0.13
2022-11-23T10:21:07.045Z,0.13
2022-11-23T10:22:07.047Z,0.13
2022-11-23T10:23:06.972Z,0.12
2022-11-23T10:24:06.984Z,0.12
2022-11-23T10:25:06.919Z,0.12
2022-11-23T10:26:06.881Z,0.11
2022-11-23T10:27:06.816Z,0.11
2022-11-23T10:28:06.841Z,0.12
2022-11-23T10:29:06.820Z,0.12
2022-11-23T10:30:06.774Z,0.12
2022-11-23T10:31:06.677Z,0.12
2022-11-23T10:32:06.644Z,0.12
2022-11-23T10:33:06.598Z,0.13
2022-11-23T10:34:06.577Z,0.14
2022-11-23T10:35:06.532Z,0.14
2022-11-23T10:36:06.502Z,0.15
2022-11-23T10:37:06.440Z,0.15
2022-11-23T10:38:06.444Z,0.15
2022-11-23T10:39:06.420Z,0.16
2022-11-23T10:40:06.372Z,0.17
2022-11-23T10:41:06.321Z,0.17
2022-11-23T10:42:06.306Z,0.17
2022-11-23T10:43:06.219Z,0.16
2022-11-23T10:44:06.235Z,0.16
2022-11-23T10:45:06.188Z,0.15
2022-11-23T10:46:06.152Z,0.14
2022-11-23T10:47:06.082Z,0.14
2022-11-23T10:48:06.080Z,0.14
2022-11-23T10:49:06.022Z,0.13
2022-11-23T10:50:06.010Z,0.13
2022-11-23T10:51:05.949Z,0.12
2022-11-23T10:52:05.966Z,0.12
2022-11-23T10:53:05.875Z,0.12
2022-11-23T10:54:05.892Z,0.12
2022-11-23T10:55:05.838Z,0.12
2022-11-23T10:56:05.774Z,0.13
2022-11-23T10:57:05.713Z,0.12
2022-11-23T10:58:05.712Z,0.12
2022-11-23T10:59:05.639Z,0.11
2022-11-23T11:00:05.683Z,0.11
2022-11-23T11:01:05.592Z,0.11
2022-11-23T11:02:05.623Z,0.11
2022-11-23T11:03:05.490Z,0.11
2022-11-23T11:04:05.495Z,0.11
2022-11-23T11:05:05.495Z,0.1
2022-11-23T11:06:10.058Z,0.1
2022-11-23T11:07:05.381Z,0.1
2022-11-23T11:08:05.333Z,0.11
2022-11-23T11:09:08.448Z,0.1
2022-11-23T11:10:05.297Z,0.11
2022-11-23T11:11:05.226Z,0.1
2022-11-23T11:12:05.184Z,0.11
2022-11-23T11:13:05.159Z,0.11
2022-11-23T11:14:05.163Z,0.11
2022-11-23T11:15:11.140Z,0.12
2022-11-23T11:16:05.133Z,0.13
2022-11-23T11:17:05.003Z,0.13
2022-11-23T11:18:05.000Z,0.13
2022-11-23T11:19:04.931Z,0.13
2022-11-23T11:20:04.916Z,0.13
2022-11-23T11:21:04.888Z,0.13
2022-11-23T11:22:04.823Z,0.13
2022-11-23T11:23:04.772Z,0.13
2022-11-23T11:24:04.778Z,0.12
2022-11-23T11:25:04.732Z,0.12
2022-11-23T11:26:04.681Z,0.11
2022-11-23T11:27:04.620Z,0.11
2022-11-23T11:28:04.627Z,0.12
2022-11-23T11:29:04.566Z,0.12
2022-11-23T11:30:04.537Z,0.12
2022-11-23T11:31:04.492Z,0.12
2022-11-23T11:32:04.529Z,0.11
2022-11-23T11:33:04.989Z,0.11
2022-11-23T11:34:04.388Z,0.12
2022-11-23T11:35:04.398Z,0.12
2022-11-23T11:36:04.332Z,0.12
2022-11-23T11:37:04.265Z,0.12
2022-11-23T11:38:04.276Z,0.11
2022-11-23T11:39:19.987Z,0.11
2022-11-23T11:40:14.196Z,0.11
2022-11-23T11:41:14.151Z,0.12
2022-11-23T11:42:14.123Z,0.13
2022-11-23T11:43:14.035Z,0.13
2022-11-23T11:44:14.017Z,0.13
2022-11-23T11:45:13.985Z,0.12
2022-11-23T11:46:30.084Z,0.12
2022-11-23T11:47:23.970Z,0.12
2022-11-23T11:48:23.866Z,0.12
2022-11-23T11:49:23.811Z,0.12
2022-11-23T11:50:27.186Z,0.13
2022-11-23T11:51:23.774Z,0.12
2022-11-23T11:52:23.851Z,0.12
2022-11-23T11:53:23.684Z,0.12
2022-11-23T11:54:23.728Z,0.12
2022-11-23T11:55:23.601Z,0.12
2022-11-23T11:56:23.666Z,0.12
2022-11-23T11:57:23.541Z,0.12
2022-11-23T11:58:23.503Z,0.12
2022-11-23T11:59:23.517Z,0.13
2022-11-23T12:00:23.481Z,0.12
2022-11-23T12:01:23.375Z,0.12
2022-11-23T12:02:23.393Z,0.13
2022-11-23T12:03:23.353Z,0.12
2022-11-23T12:04:23.306Z,0.12
2022-11-23T12:05:23.256Z,0.12
2022-11-23T12:06:26.586Z,0.12
2022-11-23T12:07:23.251Z,0.12
2022-11-23T12:08:23.163Z,0.13
2022-11-23T12:09:23.088Z,0.13
2022-11-23T12:10:23.090Z,0.12
2022-11-23T12:11:23.059Z,0.13
2022-11-23T12:12:28.332Z,0.12
2022-11-23T12:13:23.015Z,0.13
2022-11-23T12:14:22.959Z,0.13
2022-11-23T12:16:45.839Z,0.13
2022-11-23T12:17:45.803Z,0.13
2022-11-23T12:18:45.869Z,0.12
2022-11-23T12:19:45.711Z,0.12
2022-11-23T12:20:45.735Z,0.13
2022-11-23T12:21:46.524Z,0.13
2022-11-23T12:22:45.643Z,0.12
2022-11-23T12:23:45.566Z,0.13
2022-11-23T12:24:45.569Z,0.13
2022-11-23T12:25:45.529Z,0.13
2022-11-23T12:26:45.513Z,0.13
2022-11-23T12:27:48.741Z,0.12
2022-11-23T12:28:45.427Z,0.13
2022-11-23T12:29:45.427Z,0.13
2022-11-23T12:30:45.335Z,0.13
2022-11-23T12:31:45.335Z,0.12
2022-11-23T12:32:45.283Z,0.12
2022-11-23T12:33:45.227Z,0.11
2022-11-23T12:34:45.224Z,0.11
2022-11-23T12:35:45.157Z,0.11
2022-11-23T12:36:45.157Z,0.11
2022-11-23T12:37:45.065Z,0.12
2022-11-23T12:38:45.049Z,0.11
2022-11-23T12:39:45.017Z,0.11
2022-11-23T12:40:44.966Z,0.11
2022-11-23T12:41:44.976Z,0.12
2022-11-23T12:42:44.903Z,0.12
2022-11-23T12:43:44.885Z,0.12
2022-11-23T12:44:45.391Z,0.12
2022-11-23T12:45:44.797Z,0.11
2022-11-23T12:46:44.758Z,0.11
2022-11-23T12:47:44.792Z,0.11
2022-11-23T12:48:44.690Z,0.12
2022-11-23T12:49:44.672Z,0.11
2022-11-23T12:50:44.623Z,0.11
2022-11-23T12:51:44.604Z,0.12
2022-11-23T12:52:44.546Z,0.12
2022-11-23T12:53:44.596Z,0.12
2022-11-23T12:54:44.452Z,0.12
2022-11-23T12:55:44.461Z,0.12
2022-11-23T12:56:44.378Z,0.12
2022-11-23T12:57:44.373Z,0.13
2022-11-23T12:58:44.367Z,0.12
2022-11-23T12:59:44.310Z,0.12
2022-11-23T13:00:44.280Z,0.12
2022-11-23T13:01:44.251Z,0.12
2022-11-23T13:02:44.184Z,0.12
2022-11-23T13:03:44.170Z,0.12
2022-11-23T13:04:44.110Z,0.12
2022-11-23T13:05:44.102Z,0.12
2022-11-23T13:06:54.006Z,0.12
2022-11-23T13:08:05.025Z,0.11
2022-11-23T13:09:04.953Z,0.11
2022-11-23T13:10:04.938Z,0.11
2022-11-23T13:11:04.911Z,0.11
2022-11-23T13:12:04.867Z,0.11
2022-11-23T13:13:04.811Z,0.11
2022-11-23T13:14:04.807Z,0.11
2022-11-23T13:15:04.770Z,0.11
2022-11-23T13:16:04.891Z,0.1
2022-11-23T13:17:04.700Z,0.11
2022-11-23T13:18:04.631Z,0.11
2022-11-23T13:19:05.223Z,0.1
2022-11-23T13:20:04.589Z,0.11
2022-11-23T13:21:04.535Z,0.11
2022-11-23T13:22:04.530Z,0.11
2022-11-23T13:23:04.450Z,0.11